Time;durP1;ratioP1;P1;durP2;ratioP2;P2;SDS_P1;SDS_P2;PMS_P1;PMS_P2;Temp;Humidity;BMP_temperature;BMP_pressure;BME280_temperature;BME280_humidity;BME280_pressure;Samples;Min_cycle;Max_cycle;Signal;HPM_P1;HPM_P2
2022/11/24 00:01:56;;;;;;;16.50;8.15;;;;;;;;;;5074153;28;20052;-71
2022/11/24 00:04:23;;;;;;;16.48;8.45;;;6.60;96.10;;;;;;5074332;28;20056;-71
2022/11/24 00:06:52;;;;;;;14.10;7.72;;;;;;;;;;5074574;28;20056;-71
2022/11/24 00:09:19;;;;;;;18.55;8.95;;;6.70;96.20;;;;;;5074597;28;20056;-71
2022/11/24 00:11:46;;;;;;;17.50;8.60;;;;;;;;;;5074331;28;20044;-71
2022/11/24 00:14:13;;;;;;;14.98;8.60;;;7.10;94.80;;;;;;5074230;28;20064;-71
2022/11/24 00:16:41;;;;;;;15.05;8.05;;;7.00;89.00;;;;;;5058419;28;20118;-71
2022/11/24 00:19:08;;;;;;;13.48;7.43;;;7.00;89.00;;;;;;5054242;28;20064;-71
2022/11/24 00:21:36;;;;;;;15.55;7.88;;;;;;;;;;5054103;28;20053;-71
2022/11/24 00:24:03;;;;;;;13.10;7.55;;;7.00;96.30;;;;;;5054300;28;20172;-71
2022/11/24 00:26:30;;;;;;;14.98;7.47;;;6.90;89.10;;;;;;5070411;28;20057;-71
2022/11/24 00:28:59;;;;;;;15.15;7.47;;;7.00;96.40;;;;;;5057411;28;20088;-71
2022/11/24 00:31:27;;;;;;;15.32;7.57;;;;;;;;;;5075552;28;20048;-71
2022/11/24 00:33:56;;;;;;;16.95;7.60;;;7.00;95.30;;;;;;5076587;28;20052;-72
2022/11/24 00:36:23;;;;;;;17.27;7.72;;;7.00;89.00;;;;;;5076312;28;20049;-71
2022/11/24 00:38:53;;;;;;;13.95;7.18;;;7.00;96.40;;;;;;5076382;28;20048;-71
2022/11/24 00:41:20;;;;;;;18.10;7.80;;;6.70;96.30;;;;;;5067902;28;20078;-71
2022/11/24 00:43:47;;;;;;;15.80;7.22;;;;;;;;;;5056596;28;20052;-71
2022/11/24 00:46:14;;;;;;;15.02;7.07;;;6.90;96.50;;;;;;5056056;28;20056;-71
2022/11/24 00:48:41;;;;;;;12.00;6.35;;;;;;;;;;5055801;28;20110;-71
2022/11/24 00:51:10;;;;;;;17.45;7.20;;;6.60;91.00;;;;;;5055690;28;20052;-71
2022/11/24 00:53:37;;;;;;;17.98;7.07;;;;;;;;;;5055125;28;20096;-70
2022/11/24 00:56:04;;;;;;;19.52;6.60;;;6.80;96.40;;;;;;5056735;28;20044;-71
2022/11/24 00:58:32;;;;;;;20.08;6.65;;;;;;;;;;5055943;28;20057;-71
2022/11/24 01:01:01;;;;;;;13.85;6.80;;;7.30;96.50;;;;;;5055574;28;20057;-71
2022/11/24 01:03:28;;;;;;;16.95;6.55;;;;;;;;;;5056097;28;20414;-71
2022/11/24 01:05:56;;;;;;;15.73;5.95;;;;;;;;;;5055322;28;20445;-71
2022/11/24 01:08:24;;;;;;;17.85;6.00;;;6.70;96.60;;;;;;5054855;28;20449;-71
2022/11/24 01:10:51;;;;;;;13.75;5.53;;;6.60;96.60;;;;;;5069130;28;20056;-71
2022/11/24 01:13:18;;;;;;;15.77;6.15;;;;;;;;;;5075498;28;20056;-71
2022/11/24 01:15:45;;;;;;;18.45;6.10;;;6.60;96.40;;;;;;5075067;28;20052;-72
2022/11/24 01:18:12;;;;;;;14.63;5.68;;;;;;;;;;5075004;28;20052;-71
2022/11/24 01:20:39;;;;;;;17.27;5.63;;;6.60;96.60;;;;;;5074954;28;20056;-71
2022/11/24 01:23:06;;;;;;;19.70;6.32;;;;;;;;;;5074878;28;20064;-71
2022/11/24 01:25:34;;;;;;;16.17;5.63;;;6.50;91.10;;;;;;5060393;28;20059;-72
2022/11/24 01:28:01;;;;;;;16.92;5.32;;;6.60;96.70;;;;;;5055541;28;20095;-72
2022/11/24 01:30:28;;;;;;;28.02;5.85;;;;;;;;;;5055708;28;20056;-71
2022/11/24 01:32:55;;;;;;;16.38;5.20;;;6.10;96.50;;;;;;5055625;28;20045;-71
2022/11/24 01:35:22;;;;;;;21.48;5.28;;;;;;;;;;5054392;28;20102;-71
2022/11/24 01:37:49;;;;;;;16.17;5.25;;;;;;;;;;5054307;28;20096;-72
2022/11/24 01:40:16;;;;;;;13.10;5.00;;;7.70;90.70;;;;;;5051172;28;20049;-71
2022/11/24 01:42:48;;;;;;;18.90;5.03;;;6.80;96.60;;;;;;5035630;28;20049;-71
2022/11/24 01:45:31;;;;;;;19.67;5.40;;;6.60;89.40;;;;;;5034504;28;20061;-71
2022/11/24 01:47:57;;;;;;;17.23;4.90;;;6.70;96.70;;;;;;5034196;28;20057;-72
2022/11/24 01:50:25;;;;;;;17.02;5.72;;;;;;;;;;5035333;28;20053;-72
2022/11/24 01:52:52;;;;;;;19.70;4.72;;;6.60;96.60;;;;;;5040190;28;20056;-72
2022/11/24 01:55:21;;;;;;;27.05;5.22;;;5.90;96.60;;;;;;5074491;28;20053;-72
2022/11/24 01:57:51;;;;;;;18.75;6.18;;;6.70;96.70;;;;;;5074283;28;20055;-71
2022/11/24 02:00:18;;;;;;;15.70;4.75;;;5.90;96.50;;;;;;5074604;28;20056;-71
2022/11/24 02:02:45;;;;;;;23.30;5.40;;;7.30;93.10;;;;;;5075456;28;20084;-71
2022/11/24 02:05:14;;;;;;;18.67;4.72;;;6.70;96.70;;;;;;5073564;28;20061;-72
2022/11/24 02:07:41;;;;;;;21.25;5.00;;;6.70;96.70;;;;;;5064312;28;20075;-71
2022/11/24 02:10:09;;;;;;;21.48;5.70;;;6.60;94.10;;;;;;5054231;28;20052;-72
2022/11/24 02:12:36;;;;;;;17.65;6.05;;;6.50;96.80;;;;;;5055189;28;20048;-71
2022/11/24 02:15:06;;;;;;;21.10;5.28;;;7.10;90.00;;;;;;5054461;28;20054;-71
2022/11/24 02:17:33;;;;;;;18.88;4.95;;;6.50;96.90;;;;;;5054149;28;20106;-71
2022/11/24 02:20:00;;;;;;;16.98;5.65;;;6.60;90.20;;;;;;5053141;28;20053;-71
2022/11/24 02:22:30;;;;;;;16.42;5.10;;;6.50;96.90;;;;;;5063870;28;20052;-71
2022/11/24 02:25:00;;;;;;;26.17;4.70;;;5.70;96.50;;;;;;5074761;28;20098;-71
2022/11/24 02:27:28;;;;;;;21.48;5.15;;;6.10;96.70;;;;;;5074871;28;20098;-71
2022/11/24 02:29:56;;;;;;;15.90;4.80;;;;;;;;;;5073678;28;20044;-71
2022/11/24 02:32:22;;;;;;;19.52;4.80;;;6.50;96.80;;;;;;5074072;28;20060;-71
2022/11/24 02:34:49;;;;;;;18.92;4.47;;;5.60;96.60;;;;;;5073815;28;20056;-72
2022/11/24 02:37:16;;;;;;;22.17;5.30;;;6.40;92.00;;;;;;5058066;28;20106;-71
2022/11/24 02:39:43;;;;;;;17.33;4.40;;;;;;;;;;5053891;28;20061;-71
2022/11/24 02:42:11;;;;;;;15.32;4.18;;;6.80;90.90;;;;;;5053838;28;20045;-71
2022/11/24 02:44:41;;;;;;;18.80;4.88;;;5.80;96.70;;;;;;5054956;28;20049;-71
2022/11/24 02:47:09;;;;;;;18.77;5.18;;;6.40;96.80;;;;;;5054933;28;20057;-71
2022/11/24 02:49:36;;;;;;;13.95;4.32;;;;;;;;;;5054723;28;20057;-71
2022/11/24 02:52:03;;;;;;;14.43;4.13;;;5.50;96.70;;;;;;5059166;28;20105;-72
2022/11/24 02:54:30;;;;;;;13.85;3.90;;;6.00;96.70;;;;;;5073484;28;20101;-71
2022/11/24 02:56:57;;;;;;;22.30;4.93;;;5.90;94.10;;;;;;5071078;28;20060;-71
2022/11/24 02:59:24;;;;;;;15.25;4.30;;;6.00;96.90;;;;;;5071231;28;20502;-71
2022/11/24 03:01:52;;;;;;;17.08;5.07;;;6.60;90.00;;;;;;5070755;28;20502;-71
2022/11/24 03:04:19;;;;;;;28.05;4.90;;;;;;;;;;5071069;28;20063;-71
2022/11/24 03:06:46;;;;;;;15.80;4.45;;;;;;;;;;5064713;28;20068;-71
2022/11/24 03:09:13;;;;;;;18.48;4.95;;;7.00;94.40;;;;;;5051076;28;20064;-71
2022/11/24 03:11:40;;;;;;;17.73;4.28;;;5.50;96.70;;;;;;5049980;28;20132;-71
2022/11/24 03:14:07;;;;;;;16.13;4.03;;;;;;;;;;5050778;28;20449;-71
2022/11/24 03:16:34;;;;;;;15.77;4.03;;;5.50;96.70;;;;;;5050800;28;20098;-71
2022/11/24 03:19:02;;;;;;;15.48;4.50;;;6.40;90.00;;;;;;5053299;28;20048;-71
2022/11/24 03:21:29;;;;;;;16.27;4.40;;;;;;;;;;5071421;28;20575;-71
2022/11/24 03:23:56;;;;;;;14.18;4.03;;;7.10;97.00;;;;;;5070827;28;20049;-71
2022/11/24 03:26:24;;;;;;;19.40;4.38;;;6.60;90.00;;;;;;5071040;28;20125;-70
2022/11/24 03:28:53;;;;;;;12.13;3.70;;;6.80;95.70;;;;;;5070733;28;20060;-71
2022/11/24 03:31:20;;;;;;;21.52;4.18;;;7.40;97.20;;;;;;5069553;28;20055;-71
2022/11/24 03:33:47;;;;;;;20.92;3.78;;;6.80;97.00;;;;;;5061360;28;20076;-71
2022/11/24 03:36:15;;;;;;;17.33;4.28;;;6.80;94.90;;;;;;5050864;28;20389;-71
2022/11/24 03:38:42;;;;;;;15.15;4.18;;;6.50;96.70;;;;;;5050534;28;20107;-71
2022/11/24 03:41:09;;;;;;;14.30;3.90;;;6.80;96.90;;;;;;5050135;28;20060;-71
2022/11/24 03:43:36;;;;;;;16.33;4.03;;;;;;;;;;5050548;28;20053;-71
2022/11/24 03:46:03;;;;;;;17.50;3.85;;;5.70;96.60;;;;;;5050468;28;20106;-71
2022/11/24 03:48:30;;;;;;;14.63;3.85;;;;;;;;;;5050541;28;20061;-71
2022/11/24 03:50:59;;;;;;;15.75;3.92;;;5.90;96.60;;;;;;5051163;28;20057;-71
2022/11/24 03:53:28;;;;;;;21.33;4.55;;;6.70;90.00;;;;;;5051944;28;20079;-71
2022/11/24 03:55:55;;;;;;;16.08;3.17;;;6.00;96.60;;;;;;5051664;28;20111;-71
2022/11/24 03:58:22;;;;;;;20.15;4.70;;;5.90;96.60;;;;;;5051926;28;20099;-71
2022/11/24 04:00:49;;;;;;;18.60;3.90;;;7.60;94.20;;;;;;5052238;28;20057;-71
2022/11/24 04:03:15;;;;;;;13.85;3.83;;;7.00;97.00;;;;;;5052393;28;20107;-71
2022/11/24 04:05:43;;;;;;;17.33;4.25;;;;;;;;;;5066531;28;20060;-71
2022/11/24 04:08:10;;;;;;;17.08;3.80;;;;;;;;;;5073848;28;20048;-72
2022/11/24 04:10:38;;;;;;;17.15;3.38;;;6.80;92.30;;;;;;5073054;28;20102;-71
2022/11/24 04:13:09;;;;;;;12.50;3.72;;;6.60;96.60;;;;;;5072932;28;20044;-71
2022/11/24 04:15:37;;;;;;;23.45;4.13;;;7.70;97.10;;;;;;5073326;28;20410;-72
2022/11/24 04:18:04;;;;;;;21.77;4.30;;;6.70;96.70;;;;;;5070972;28;20063;-71
2022/11/24 04:20:31;;;;;;;18.80;3.78;;;;;;;;;;5052509;28;20136;-71
2022/11/24 04:22:57;;;;;;;21.15;4.68;;;6.40;96.60;;;;;;5052050;28;20052;-72
2022/11/24 04:25:24;;;;;;;15.65;3.55;;;6.90;96.90;;;;;;5053167;28;20132;-71
2022/11/24 04:27:53;;;;;;;17.55;3.72;;;6.80;90.00;;;;;;5072282;28;20508;-71
2022/11/24 04:30:20;;;;;;;14.88;3.85;;;5.90;96.50;;;;;;5072981;28;20044;-71
2022/11/24 04:32:46;;;;;;;19.35;3.50;;;6.90;96.80;;;;;;5072215;28;20070;-72
2022/11/24 04:35:13;;;;;;;15.07;3.28;;;;;;;;;;5070468;28;20508;-71
2022/11/24 04:37:40;;;;;;;25.23;4.00;;;6.30;96.60;;;;;;5072078;28;20481;-71
2022/11/24 04:40:08;;;;;;;10.00;4.25;;;5.80;96.70;;;;;;5072673;28;20121;-71
2022/11/24 04:42:36;;;;;;;13.70;3.53;;;7.30;93.20;;;;;;5073747;28;20056;-71
2022/11/24 04:45:05;;;;;;;18.15;3.75;;;6.20;96.80;;;;;;5077029;28;20236;-71
2022/11/24 04:47:32;;;;;;;14.57;3.17;;;6.20;96.80;;;;;;5076661;28;20139;-71
2022/11/24 04:49:59;;;;;;;26.80;3.63;;;6.60;96.90;;;;;;5077129;28;20052;-71
2022/11/24 04:52:26;;;;;;;19.35;3.10;;;;;;;;;;5060112;28;20144;-71
2022/11/24 04:54:52;;;;;;;19.45;3.83;;;6.40;96.80;;;;;;5057568;28;20059;-71
2022/11/24 04:57:20;;;;;;;11.90;3.30;;;6.50;90.00;;;;;;5056734;28;20067;-71
2022/11/24 04:59:47;;;;;;;16.63;3.53;;;5.90;96.60;;;;;;5057028;28;20095;-71
2022/11/24 05:02:15;;;;;;;16.23;3.42;;;6.50;90.00;;;;;;5056574;28;20052;-71
2022/11/24 05:04:42;;;;;;;17.08;3.72;;;;;;;;;;5057236;28;20051;-70
2022/11/24 05:07:10;;;;;;;13.80;3.28;;;6.70;97.00;;;;;;5072253;28;20063;-71
2022/11/24 05:10:33;;;;;;;14.68;3.78;;;;;;;;;;5075297;28;20053;-71
2022/11/24 05:12:29;;;;;;;22.60;3.38;;;6.40;96.80;;;;;;5075452;28;20448;-72
2022/11/24 05:14:56;;;;;;;13.82;3.40;;;;;;;;;;5076282;28;20049;-72
2022/11/24 05:17:25;;;;;;;15.90;3.60;;;6.50;97.00;;;;;;5075499;28;20131;-71
2022/11/24 05:19:51;;;;;;;16.48;2.95;;;5.60;96.70;;;;;;5069003;28;20061;-70
2022/11/24 05:22:18;;;;;;;16.33;3.55;;;5.40;96.60;;;;;;5052174;28;20061;-71
2022/11/24 05:24:45;;;;;;;15.50;3.42;;;6.40;92.20;;;;;;5052908;28;20061;-71
2022/11/24 05:27:11;;;;;;;20.20;3.33;;;6.20;96.80;;;;;;5053138;28;20561;-71
2022/11/24 05:29:38;;;;;;;16.10;3.05;;;5.90;96.80;;;;;;5052704;28;20091;-71
2022/11/24 05:32:05;;;;;;;21.30;4.00;;;;;;;;;;5052607;28;20059;-71
2022/11/24 05:34:33;;;;;;;14.23;3.10;;;5.90;95.70;;;;;;5059035;28;20410;-71
2022/11/24 05:37:02;;;;;;;11.30;3.03;;;5.90;96.90;;;;;;5073809;28;20050;-71
2022/11/24 05:39:29;;;;;;;12.88;2.85;;;5.90;97.00;;;;;;5073808;28;20398;-71
2022/11/24 05:41:56;;;;;;;16.90;2.63;;;6.20;97.00;;;;;;5072689;28;20060;-71
2022/11/24 05:44:22;;;;;;;18.48;2.95;;;5.80;96.80;;;;;;5059867;28;20045;-71
2022/11/24 05:46:49;;;;;;;12.65;2.85;;;;;;;;;;5052656;28;20056;-71
2022/11/24 05:49:16;;;;;;;16.83;3.25;;;6.10;96.90;;;;;;5052591;28;20140;-71
2022/11/24 05:51:44;;;;;;;13.98;3.78;;;6.70;97.00;;;;;;5052460;28;20572;-71
2022/11/24 05:54:11;;;;;;;11.52;3.00;;;6.40;97.10;;;;;;5051946;28;20059;-71
2022/11/24 05:56:37;;;;;;;23.98;4.35;;;6.20;92.60;;;;;;5052372;28;20059;-71
2022/11/24 05:59:04;;;;;;;16.30;2.90;;;6.70;97.00;;;;;;5052430;28;20132;-71
2022/11/24 06:01:31;;;;;;;14.52;2.88;;;6.50;96.90;;;;;;5052107;28;20059;-71
2022/11/24 06:03:58;;;;;;;13.95;3.10;;;;;;;;;;5064665;28;20123;-71
2022/11/24 06:06:25;;;;;;;16.45;3.63;;;6.20;97.10;;;;;;5056214;28;20060;-71
2022/11/24 06:08:53;;;;;;;16.95;3.10;;;6.30;97.20;;;;;;5068893;28;20057;-71
2022/11/24 06:11:19;;;;;;;12.52;3.40;;;5.60;96.90;;;;;;5051997;28;20136;-71
2022/11/24 06:13:47;;;;;;;13.30;2.80;;;5.90;93.70;;;;;;5051743;28;20064;-71
2022/11/24 06:16:14;;;;;;;10.70;3.50;;;6.30;97.00;;;;;;5051997;28;20052;-71
2022/11/24 06:18:40;;;;;;;11.40;2.72;;;6.50;92.90;;;;;;5051891;28;20056;-71
2022/11/24 06:21:07;;;;;;;14.38;3.10;;;6.10;97.00;;;;;;5051880;28;20481;-71
2022/11/24 06:23:34;;;;;;;16.08;3.38;;;6.10;97.10;;;;;;5051726;28;20048;-71
2022/11/24 06:26:02;;;;;;;15.23;3.13;;;5.60;95.10;;;;;;5051530;28;20136;-71
2022/11/24 06:28:29;;;;;;;14.63;3.13;;;6.40;92.40;;;;;;5051821;28;20059;-71
2022/11/24 06:30:55;;;;;;;10.50;2.67;;;5.20;96.80;;;;;;5052595;28;20053;-71
2022/11/24 06:33:22;;;;;;;15.13;3.30;;;6.30;97.20;;;;;;5068186;28;20139;-71
2022/11/24 06:35:49;;;;;;;13.65;3.33;;;;;;;;;;5071594;28;20771;-71
2022/11/24 06:38:16;;;;;;;16.63;3.33;;;6.20;97.20;;;;;;5073871;28;20056;-71
2022/11/24 06:40:43;;;;;;;16.27;2.70;;;6.00;94.30;;;;;;5073602;28;20055;-71
2022/11/24 06:43:11;;;;;;;18.27;3.80;;;6.00;97.10;;;;;;5074953;28;20135;-71
2022/11/24 06:45:38;;;;;;;15.13;3.15;;;6.20;97.30;;;;;;5072171;28;20048;-72
2022/11/24 06:48:05;;;;;;;17.17;4.00;;;;;;;;;;5055126;28;20056;-71
2022/11/24 06:50:32;;;;;;;13.55;2.92;;;6.00;97.10;;;;;;5053347;28;20049;-71
2022/11/24 06:52:58;;;;;;;13.98;3.33;;;6.10;97.30;;;;;;5055086;28;20472;-72
2022/11/24 06:55:25;;;;;;;13.88;3.10;;;6.20;91.90;;;;;;5055192;28;20044;-71
2022/11/24 06:57:52;;;;;;;17.10;3.20;;;5.90;97.00;;;;;;5054245;28;20144;-72
2022/11/24 07:00:20;;;;;;;15.52;3.42;;;6.10;97.30;;;;;;5053530;28;20063;-71
2022/11/24 07:02:48;;;;;;;15.02;3.00;;;;;;;;;;5065910;28;20401;-72
2022/11/24 07:05:14;;;;;;;11.48;3.35;;;5.60;97.00;;;;;;5072745;28;20086;-71
2022/11/24 07:07:42;;;;;;;17.90;3.20;;;;;;;;;;5072149;28;20631;-71
2022/11/24 07:10:08;;;;;;;19.23;4.10;;;6.10;97.20;;;;;;5070553;28;20135;-71
2022/11/24 07:12:35;;;;;;;17.52;3.83;;;6.10;97.20;;;;;;5071097;28;20450;-71
2022/11/24 07:15:02;;;;;;;14.00;3.45;;;;;;;;;;5071617;28;20055;-71
2022/11/24 07:17:30;;;;;;;20.27;3.35;;;6.00;97.20;;;;;;5062106;28;20120;-71
2022/11/24 07:19:57;;;;;;;22.67;4.43;;;;;;;;;;5050079;28;20056;-71
2022/11/24 07:22:24;;;;;;;16.95;3.65;;;;;;;;;;5051479;28;20067;-71
2022/11/24 07:24:51;;;;;;;19.92;4.05;;;5.80;97.10;;;;;;5051888;28;20049;-71
2022/11/24 07:27:18;;;;;;;17.40;3.88;;;6.20;97.20;;;;;;5050831;28;20063;-71
2022/11/24 07:29:45;;;;;;;18.25;4.45;;;;;;;;;;5050842;28;20063;-71
2022/11/24 07:32:11;;;;;;;19.42;4.20;;;6.00;97.30;;;;;;5052436;28;20049;-71
2022/11/24 07:34:39;;;;;;;14.65;3.88;;;6.10;90.10;;;;;;5062913;28;20052;-71
2022/11/24 07:37:06;;;;;;;18.75;3.80;;;;;;;;;;5070856;28;20066;-71
2022/11/24 07:39:33;;;;;;;22.77;4.78;;;;;;;;;;5069963;28;20060;-71
2022/11/24 07:42:00;;;;;;;14.70;3.88;;;;;;;;;;5070575;28;20056;-72
2022/11/24 07:44:27;;;;;;;20.73;4.10;;;5.70;97.10;;;;;;5071505;28;20143;-72
2022/11/24 07:46:54;;;;;;;14.57;3.95;;;;;;;;;;5069402;28;20410;-70
2022/11/24 07:49:21;;;;;;;15.13;4.05;;;;;;;;;;5066132;28;20381;-70
2022/11/24 07:51:49;;;;;;;16.77;3.60;;;5.70;97.10;;;;;;5049563;28;20140;-71
2022/11/24 07:54:16;;;;;;;15.13;3.40;;;5.90;97.20;;;;;;5049967;28;20409;-71
2022/11/24 07:56:43;;;;;;;13.48;3.17;;;;;;;;;;5049743;28;20053;-71
2022/11/24 07:59:10;;;;;;;15.00;3.75;;;6.10;97.40;;;;;;5049814;28;20049;-71
2022/11/24 08:01:37;;;;;;;18.95;4.15;;;6.10;97.20;;;;;;5049409;28;20563;-71
2022/11/24 08:04:03;;;;;;;19.65;3.50;;;6.00;93.80;;;;;;5053910;28;20052;-71
2022/11/24 08:06:30;;;;;;;18.27;3.85;;;6.00;97.30;;;;;;5070902;28;20417;-71
2022/11/24 08:08:58;;;;;;;20.77;3.83;;;5.90;97.40;;;;;;5052492;28;20045;-71
2022/11/24 08:11:25;;;;;;;13.75;3.83;;;;;;;;;;5048565;28;20053;-71
2022/11/24 08:13:52;;;;;;;14.30;3.97;;;6.00;97.40;;;;;;5048947;28;20204;-71
2022/11/24 08:16:19;;;;;;;15.23;3.50;;;;;;;;;;5049857;28;20064;-71
2022/11/24 08:18:49;;;;;;;16.20;3.60;;;5.80;90.10;;;;;;5053288;28;20048;-71
2022/11/24 08:21:16;;;;;;;14.85;4.00;;;;;;;;;;5053174;28;20049;-71
2022/11/24 08:23:43;;;;;;;13.90;3.70;;;6.10;97.40;;;;;;5052672;28;20059;-71
2022/11/24 08:26:13;;;;;;;16.27;4.35;;;5.80;90.10;;;;;;5052889;28;20055;-71
2022/11/24 08:28:39;;;;;;;18.20;4.05;;;5.60;97.40;;;;;;5067064;28;20056;-71
2022/11/24 08:31:08;;;;;;;13.73;3.83;;;5.80;91.70;;;;;;5052004;28;20053;-71
2022/11/24 08:33:35;;;;;;;17.27;3.78;;;;;;;;;;5052417;28;20064;-71
2022/11/24 08:36:06;;;;;;;19.40;4.00;;;5.70;90.20;;;;;;5053467;28;20045;-70
2022/11/24 08:38:32;;;;;;;18.40;4.55;;;5.70;97.30;;;;;;5050462;28;20111;-70
2022/11/24 08:41:01;;;;;;;14.52;3.88;;;5.20;97.20;;;;;;5052933;28;20133;-70
2022/11/24 08:43:29;;;;;;;20.95;3.83;;;5.70;97.30;;;;;;5052777;28;20049;-71
2022/11/24 08:45:59;;;;;;;23.88;3.95;;;5.50;97.30;;;;;;5035890;28;20401;-70
2022/11/24 08:48:26;;;;;;;12.25;3.30;;;;;;;;;;5052735;28;20064;-71
2022/11/24 08:50:53;;;;;;;16.73;3.78;;;;;;;;;;5051918;28;20056;-70
2022/11/24 08:53:20;;;;;;;16.75;4.00;;;5.80;97.40;;;;;;5052490;28;20053;-71
2022/11/24 08:55:47;;;;;;;14.35;4.05;;;;;;;;;;5051844;28;20040;-71
2022/11/24 08:58:15;;;;;;;16.95;3.75;;;;;;;;;;5054038;28;20048;-70
2022/11/24 09:00:43;;;;;;;13.80;4.28;;;6.60;97.30;;;;;;5051683;28;20057;-71
2022/11/24 09:03:10;;;;;;;23.40;4.72;;;6.10;97.50;;;;;;5052251;28;20064;-71
2022/11/24 09:05:37;;;;;;;14.90;4.35;;;;;;;;;;5052294;28;20052;-70
2022/11/24 09:08:04;;;;;;;19.05;4.57;;;6.10;97.50;;;;;;5052183;28;20053;-71
2022/11/24 09:10:31;;;;;;;19.25;4.35;;;;;;;;;;5053075;28;20048;-71
2022/11/24 09:12:58;;;;;;;18.95;4.60;;;5.50;97.20;;;;;;5070881;28;20144;-71
2022/11/24 09:15:25;;;;;;;17.58;4.55;;;6.40;97.60;;;;;;5072379;28;20048;-71
2022/11/24 09:17:53;;;;;;;23.08;5.22;;;6.40;93.50;;;;;;5072341;28;20508;-71
2022/11/24 09:20:20;;;;;;;18.80;5.05;;;;;;;;;;5071639;28;20143;-71
2022/11/24 18:35:20;;;;;;;15.77;5.63;;;5.80;89.20;;;;;;5052608;28;20115;-73
2022/11/24 18:37:47;;;;;;;19.85;5.40;;;;;;;;;;5051471;28;20063;-74
2022/11/24 18:40:14;;;;;;;18.55;5.95;;;5.50;97.00;;;;;;5051179;28;20168;-73
2022/11/24 18:42:41;;;;;;;13.10;5.00;;;;;;;;;;5051624;28;20139;-73
2022/11/24 18:45:10;;;;;;;13.23;4.97;;;5.80;89.40;;;;;;5051334;28;20136;-73
2022/11/24 18:47:37;;;;;;;23.40;5.97;;;6.80;97.40;;;;;;5051615;28;20057;-73
2022/11/24 18:50:04;;;;;;;15.93;5.68;;;5.90;89.70;;;;;;5050806;28;20159;-74
2022/11/24 18:52:32;;;;;;;17.58;5.75;;;5.10;96.80;;;;;;5052505;28;20401;-74
2022/11/24 18:55:02;;;;;;;15.32;5.95;;;;;;;;;;5051258;28;20124;-74
2022/11/24 18:57:29;;;;;;;15.57;5.15;;;4.90;96.80;;;;;;5051318;28;20159;-74
2022/11/24 18:59:56;;;;;;;18.25;5.75;;;;;;;;;;5050766;28;20059;-74
2022/11/24 19:02:23;;;;;;;10.25;5.65;;;5.70;97.10;;;;;;5050250;28;20057;-74
2022/11/24 19:04:50;;;;;;;10.57;4.80;;;;;;;;;;5050745;28;20049;-74
2022/11/24 19:07:17;;;;;;;28.63;5.68;;;;;;;;;;5050908;28;20128;-74
2022/11/24 19:09:45;;;;;;;17.17;5.43;;;5.40;96.90;;;;;;5051131;28;20140;-74
2022/11/24 19:12:12;;;;;;;14.00;5.05;;;5.70;97.10;;;;;;5054686;28;20083;-74
2022/11/24 19:14:39;;;;;;;11.93;4.75;;;;;;;;;;5058266;28;20057;-74
2022/11/24 19:17:06;;;;;;;13.18;4.13;;;;;;;;;;5055397;28;20058;-73
2022/11/24 19:19:33;;;;;;;17.85;4.40;;;;;;;;;;5056845;28;20059;-73
2022/11/24 19:22:00;;;;;;;12.10;4.45;;;;;;;;;;5060752;28;20049;-73
2022/11/24 19:24:27;;;;;;;15.82;4.63;;;;;;;;;;5062476;28;20048;-73
2022/11/24 19:26:55;;;;;;;17.38;5.00;;;5.70;90.00;;;;;;5056261;28;20390;-73
2022/11/24 19:29:22;;;;;;;14.63;4.50;;;5.50;96.90;;;;;;5062216;28;20053;-73
2022/11/24 19:31:49;;;;;;;16.73;4.47;;;;;;;;;;5060515;28;20063;-73
2022/11/24 19:34:16;;;;;;;21.02;4.72;;;;;;;;;;5063654;28;20176;-73
2022/11/24 19:36:43;;;;;;;11.98;4.05;;;;;;;;;;5060065;28;20123;-73
2022/11/24 19:39:13;;;;;;;14.10;4.18;;;6.80;97.40;;;;;;5062207;28;20135;-73
2022/11/24 19:41:40;;;;;;;20.00;4.25;;;5.00;96.90;;;;;;5059502;28;20053;-73
2022/11/24 19:44:09;;;;;;;14.45;4.43;;;5.70;90.00;;;;;;5061893;28;20044;-73
2022/11/24 19:46:36;;;;;;;17.80;3.97;;;;;;;;;;5060892;28;20128;-73
2022/11/24 19:49:03;;;;;;;13.38;4.28;;;;;;;;;;5061879;28;20140;-73
2022/11/24 19:51:30;;;;;;;15.32;3.83;;;;;;;;;;5061262;28;20056;-73
2022/11/24 19:53:58;;;;;;;17.15;4.30;;;;;;;;;;5049208;28;20144;-73
2022/11/24 19:56:25;;;;;;;18.45;4.35;;;6.60;97.30;;;;;;5060238;28;20462;-73
2022/11/24 19:58:53;;;;;;;14.88;3.75;;;5.80;90.00;;;;;;4158575;28;10000909;-73
2022/11/24 20:01:23;;;;;;;15.30;3.95;;;5.70;91.40;;;;;;5007969;28;20472;-73
2022/11/24 20:03:54;;;;;;;17.95;4.00;;;5.90;90.00;;;;;;5000576;28;20062;-73
2022/11/24 20:06:21;;;;;;;15.65;4.22;;;;;;;;;;4997693;28;20077;-73
2022/11/24 20:08:48;;;;;;;16.50;4.07;;;;;;;;;;4990864;28;20173;-73
2022/11/24 20:11:16;;;;;;;16.17;3.75;;;;;;;;;;4991602;28;20129;-73
2022/11/24 20:13:43;;;;;;;18.17;3.97;;;6.10;97.10;;;;;;4993425;28;20058;-73
2022/11/24 20:16:11;;;;;;;18.05;4.35;;;5.90;90.00;;;;;;4994556;28;20106;-73
2022/11/24 20:18:40;;;;;;;25.63;4.53;;;5.10;96.90;;;;;;4994657;28;20519;-74
2022/11/24 20:21:09;;;;;;;17.00;4.20;;;5.00;96.80;;;;;;4995392;28;20058;-74
2022/11/24 20:23:37;;;;;;;18.25;4.97;;;;;;;;;;4994421;28;20137;-74
2022/11/24 20:26:04;;;;;;;13.18;3.97;;;6.20;97.20;;;;;;4994495;28;20050;-74
2022/11/24 20:28:31;;;;;;;22.88;4.20;;;5.90;97.00;;;;;;4993569;28;20065;-73
2022/11/24 20:31:01;;;;;;;22.08;4.00;;;6.00;93.00;;;;;;4994046;28;20057;-74
2022/11/24 20:33:28;;;;;;;17.45;3.80;;;;;;;;;;4991972;28;20054;-74
2022/11/24 20:36:00;;;;;;;14.15;3.97;;;6.50;91.20;;;;;;4996456;28;20046;-74
2022/11/24 20:38:28;;;;;;;17.55;4.78;;;5.90;89.90;;;;;;4997060;28;20594;-74
2022/11/24 20:41:01;;;;;;;13.60;4.03;;;5.90;93.20;;;;;;4993658;28;20076;-74
2022/11/24 20:43:30;;;;;;;12.98;4.07;;;5.70;89.80;;;;;;5001208;28;20146;-74
2022/11/24 20:45:56;;;;;;;14.45;3.92;;;5.70;97.00;;;;;;4993895;28;20096;-74
2022/11/24 20:48:23;;;;;;;11.15;4.55;;;;;;;;;;4998366;28;20064;-74
2022/11/24 20:50:50;;;;;;;17.95;4.13;;;6.00;97.20;;;;;;5008869;28;20140;-74
2022/11/24 20:53:18;;;;;;;19.67;4.70;;;5.70;90.00;;;;;;4999152;28;20058;-73
2022/11/24 20:55:50;;;;;;;11.80;3.72;;;;;;;;;;4270312;28;10001525;-73
2022/11/24 20:58:17;;;;;;;15.23;4.65;;;5.40;95.70;;;;;;5001211;28;20062;-73
2022/11/24 21:00:44;;;;;;;25.27;5.32;;;;;;;;;;5012919;28;20054;-73
2022/11/24 21:03:11;;;;;;;19.98;4.40;;;;;;;;;;5000847;28;20133;-73
2022/11/24 21:05:38;;;;;;;13.98;3.95;;;;;;;;;;5005867;28;20045;-73
2022/11/24 21:08:05;;;;;;;16.42;4.60;;;;;;;;;;5008934;28;20046;-73
2022/11/24 21:10:33;;;;;;;19.38;4.53;;;5.50;90.40;;;;;;4993145;28;20062;-73
2022/11/24 21:13:00;;;;;;;14.02;4.65;;;;;;;;;;5004043;28;20104;-73
2022/11/24 21:15:28;;;;;;;18.92;4.20;;;5.70;90.10;;;;;;5010552;28;20136;-73
2022/11/24 21:17:55;;;;;;;15.18;4.15;;;;;;;;;;4993892;28;20058;-73
2022/11/24 21:20:22;;;;;;;14.50;4.20;;;5.50;97.50;;;;;;4992798;28;20058;-73
2022/11/24 21:22:49;;;;;;;13.95;4.07;;;;;;;;;;5002816;28;20058;-73
2022/11/24 21:25:16;;;;;;;12.65;4.25;;;5.70;97.40;;;;;;4998082;28;20046;-73
2022/11/24 21:27:44;;;;;;;14.38;4.13;;;5.60;90.20;;;;;;5008961;28;20058;-73
2022/11/24 21:30:11;;;;;;;15.48;4.63;;;5.60;90.10;;;;;;5044889;28;20053;-73
2022/11/24 21:32:38;;;;;;;13.02;3.90;;;;;;;;;;5004807;28;20058;-72
2022/11/24 21:35:05;;;;;;;10.20;4.05;;;5.70;97.50;;;;;;4994461;28;20050;-73
2022/11/24 21:37:33;;;;;;;14.98;4.55;;;;;;;;;;4993775;28;20046;-73
2022/11/24 21:40:00;;;;;;;14.02;4.35;;;;;;;;;;4991648;28;20054;-73
2022/11/24 21:42:27;;;;;;;12.75;4.97;;;;;;;;;;5023794;28;20046;-73
2022/11/24 21:44:59;;;;;;;17.20;4.60;;;5.60;90.10;;;;;;4991353;28;20050;-73
2022/11/24 21:47:26;;;;;;;18.90;5.55;;;;;;;;;;5005461;28;20439;-73
2022/11/24 21:49:53;;;;;;;17.60;4.65;;;;;;;;;;4992576;28;20464;-73
2022/11/24 21:52:20;;;;;;;15.80;4.78;;;5.80;97.50;;;;;;4992264;28;20076;-73
2022/11/24 21:54:47;;;;;;;20.48;4.57;;;;;;;;;;4992548;28;20048;-73
2022/11/24 21:57:14;;;;;;;16.35;4.47;;;5.20;97.40;;;;;;5025354;28;20046;-73
2022/11/24 21:59:41;;;;;;;24.02;4.60;;;;;;;;;;5003087;28;20057;-73
2022/11/24 22:02:10;;;;;;;15.23;4.22;;;5.00;90.80;;;;;;5025138;28;20066;-73
2022/11/24 22:04:37;;;;;;;18.35;4.97;;;;;;;;;;4995892;28;20149;-73
2022/11/24 22:07:04;;;;;;;24.58;5.45;;;;;;;;;;4994881;28;20054;-73
2022/11/24 22:09:31;;;;;;;17.30;4.32;;;6.70;97.40;;;;;;4992331;28;20093;-73
2022/11/24 22:11:58;;;;;;;23.27;5.00;;;;;;;;;;4992025;28;20050;-73
2022/11/24 22:14:25;;;;;;;21.40;6.00;;;;;;;;;;5028688;28;20046;-73
2022/11/24 22:16:52;;;;;;;22.73;5.03;;;5.40;92.50;;;;;;4993057;28;20057;-73
2022/11/24 22:19:20;;;;;;;16.00;5.15;;;5.90;97.40;;;;;;4992279;28;20555;-73
2022/11/24 22:21:47;;;;;;;17.70;5.63;;;;;;;;;;4992533;28;20050;-73
2022/11/24 22:24:14;;;;;;;18.77;4.30;;;;;;;;;;5026065;28;20056;-73
2022/11/24 22:26:41;;;;;;;16.50;4.55;;;;;;;;;;4993872;28;20057;-73
2022/11/24 22:29:08;;;;;;;16.63;4.65;;;;;;;;;;5004558;28;20574;-73
2022/11/24 22:31:35;;;;;;;14.80;4.10;;;;;;;;;;5003120;28;20057;-73
2022/11/24 22:34:02;;;;;;;16.13;4.25;;;;;;;;;;5004793;28;20046;-73